sensor_id;sensor_type;location;lat;lon;timestamp;P1;durP1;ratioP1;P2;durP2;ratioP2
4555;SDS011;2290;48.674;9.018;2023-06-24T00:01:40;8.83;;;5.83;;
4555;SDS011;2290;48.674;9.018;2023-06-24T00:04:06;9.13;;;5.43;;
4555;SDS011;2290;48.674;9.018;2023-06-24T00:06:31;6.60;;;4.87;;
4555;SDS011;2290;48.674;9.018;2023-06-24T00:08:57;6.70;;;4.40;;
4555;SDS011;2290;48.674;9.018;2023-06-24T00:11:27;9.43;;;5.10;;
4555;SDS011;2290;48.674;9.018;2023-06-24T00:13:55;7.07;;;4.93;;
4555;SDS011;2290;48.674;9.018;2023-06-24T00:16:21;9.03;;;5.27;;
4555;SDS011;2290;48.674;9.018;2023-06-24T00:18:52;10.57;;;6.20;;
4555;SDS011;2290;48.674;9.018;2023-06-24T00:21:25;8.00;;;5.60;;
4555;SDS011;2290;48.674;9.018;2023-06-24T00:23:55;7.53;;;5.50;;
4555;SDS011;2290;48.674;9.018;2023-06-24T00:26:22;8.80;;;5.60;;
4555;SDS011;2290;48.674;9.018;2023-06-24T00:28:49;8.70;;;5.80;;
4555;SDS011;2290;48.674;9.018;2023-06-24T00:31:14;8.00;;;5.10;;
4555;SDS011;2290;48.674;9.018;2023-06-24T00:33:40;7.97;;;5.70;;
4555;SDS011;2290;48.674;9.018;2023-06-24T00:36:05;10.63;;;6.23;;
4555;SDS011;2290;48.674;9.018;2023-06-24T00:38:35;7.63;;;5.47;;
4555;SDS011;2290;48.674;9.018;2023-06-24T00:41:01;8.43;;;5.93;;
4555;SDS011;2290;48.674;9.018;2023-06-24T00:43:27;8.17;;;5.50;;
4555;SDS011;2290;48.674;9.018;2023-06-24T00:45:54;9.97;;;5.60;;
4555;SDS011;2290;48.674;9.018;2023-06-24T00:48:21;6.27;;;4.70;;
4555;SDS011;2290;48.674;9.018;2023-06-24T00:50:47;9.50;;;5.83;;
4555;SDS011;2290;48.674;9.018;2023-06-24T00:53:14;9.13;;;5.87;;
4555;SDS011;2290;48.674;9.018;2023-06-24T00:55:40;8.33;;;5.90;;
4555;SDS011;2290;48.674;9.018;2023-06-24T00:58:06;7.60;;;5.50;;
4555;SDS011;2290;48.674;9.018;2023-06-24T01:00:33;9.43;;;5.37;;
4555;SDS011;2290;48.674;9.018;2023-06-24T01:02:59;6.63;;;4.73;;
4555;SDS011;2290;48.674;9.018;2023-06-24T01:05:27;7.40;;;4.67;;
4555;SDS011;2290;48.674;9.018;2023-06-24T01:07:54;6.53;;;4.50;;
4555;SDS011;2290;48.674;9.018;2023-06-24T01:10:22;7.50;;;4.73;;
4555;SDS011;2290;48.674;9.018;2023-06-24T01:12:49;7.10;;;4.97;;
4555;SDS011;2290;48.674;9.018;2023-06-24T01:15:14;7.20;;;4.70;;
4555;SDS011;2290;48.674;9.018;2023-06-24T01:23:06;7.40;;;4.80;;
4555;SDS011;2290;48.674;9.018;2023-06-24T01:31:01;9.30;;;5.17;;
4555;SDS011;2290;48.674;9.018;2023-06-24T01:33:45;6.63;;;4.73;;
4555;SDS011;2290;48.674;9.018;2023-06-24T01:36:25;6.10;;;4.80;;
4555;SDS011;2290;48.674;9.018;2023-06-24T01:38:57;8.57;;;4.70;;
4555;SDS011;2290;48.674;9.018;2023-06-24T01:41:31;6.00;;;4.20;;
4555;SDS011;2290;48.674;9.018;2023-06-24T01:44:01;6.47;;;4.40;;
4555;SDS011;2290;48.674;9.018;2023-06-24T01:46:29;6.23;;;4.30;;
4555;SDS011;2290;48.674;9.018;2023-06-24T01:48:55;5.97;;;4.40;;
4555;SDS011;2290;48.674;9.018;2023-06-24T01:51:26;6.50;;;4.50;;
4555;SDS011;2290;48.674;9.018;2023-06-24T01:53:58;5.30;;;4.10;;
4555;SDS011;2290;48.674;9.018;2023-06-24T01:56:27;6.83;;;4.50;;
4555;SDS011;2290;48.674;9.018;2023-06-24T01:58:54;6.57;;;4.43;;
4555;SDS011;2290;48.674;9.018;2023-06-24T02:01:21;5.63;;;4.33;;
4555;SDS011;2290;48.674;9.018;2023-06-24T02:03:48;5.87;;;4.53;;
4555;SDS011;2290;48.674;9.018;2023-06-24T02:06:14;5.17;;;3.93;;
4555;SDS011;2290;48.674;9.018;2023-06-24T02:08:41;7.10;;;3.87;;
4555;SDS011;2290;48.674;9.018;2023-06-24T02:11:10;8.30;;;4.80;;
4555;SDS011;2290;48.674;9.018;2023-06-24T02:13:37;6.70;;;4.60;;
4555;SDS011;2290;48.674;9.018;2023-06-24T02:16:04;4.70;;;3.83;;
4555;SDS011;2290;48.674;9.018;2023-06-24T02:18:34;5.80;;;4.20;;
4555;SDS011;2290;48.674;9.018;2023-06-24T02:21:02;5.70;;;3.87;;
4555;SDS011;2290;48.674;9.018;2023-06-24T02:23:29;5.90;;;3.73;;
4555;SDS011;2290;48.674;9.018;2023-06-24T02:25:56;5.70;;;4.30;;
4555;SDS011;2290;48.674;9.018;2023-06-24T02:28:23;7.03;;;3.83;;
4555;SDS011;2290;48.674;9.018;2023-06-24T02:30:50;7.97;;;4.27;;
4555;SDS011;2290;48.674;9.018;2023-06-24T02:33:16;5.90;;;4.20;;
4555;SDS011;2290;48.674;9.018;2023-06-24T02:35:42;6.53;;;3.87;;
4555;SDS011;2290;48.674;9.018;2023-06-24T02:38:10;7.13;;;4.10;;
4555;SDS011;2290;48.674;9.018;2023-06-24T02:40:36;6.83;;;4.93;;
4555;SDS011;2290;48.674;9.018;2023-06-24T02:43:02;6.67;;;4.20;;
4555;SDS011;2290;48.674;9.018;2023-06-24T02:45:27;5.53;;;4.03;;
4555;SDS011;2290;48.674;9.018;2023-06-24T02:47:53;7.23;;;4.43;;
4555;SDS011;2290;48.674;9.018;2023-06-24T02:50:20;7.90;;;4.97;;
4555;SDS011;2290;48.674;9.018;2023-06-24T02:52:47;6.50;;;4.57;;
4555;SDS011;2290;48.674;9.018;2023-06-24T02:55:13;7.60;;;4.90;;
4555;SDS011;2290;48.674;9.018;2023-06-24T02:57:40;5.70;;;4.00;;
4555;SDS011;2290;48.674;9.018;2023-06-24T03:00:07;6.47;;;3.87;;
4555;SDS011;2290;48.674;9.018;2023-06-24T03:02:41;5.70;;;4.33;;
4555;SDS011;2290;48.674;9.018;2023-06-24T03:05:09;4.80;;;4.03;;
4555;SDS011;2290;48.674;9.018;2023-06-24T03:07:37;5.13;;;4.07;;
4555;SDS011;2290;48.674;9.018;2023-06-24T03:10:03;6.13;;;4.43;;
4555;SDS011;2290;48.674;9.018;2023-06-24T03:12:30;6.30;;;4.30;;
4555;SDS011;2290;48.674;9.018;2023-06-24T03:14:58;8.00;;;4.00;;
4555;SDS011;2290;48.674;9.018;2023-06-24T03:17:23;6.43;;;4.47;;
4555;SDS011;2290;48.674;9.018;2023-06-24T03:19:49;5.33;;;4.07;;
4555;SDS011;2290;48.674;9.018;2023-06-24T03:22:15;6.13;;;4.07;;
4555;SDS011;2290;48.674;9.018;2023-06-24T03:24:42;8.73;;;4.80;;
4555;SDS011;2290;48.674;9.018;2023-06-24T03:27:07;6.37;;;4.20;;
4555;SDS011;2290;48.674;9.018;2023-06-24T03:29:33;6.90;;;4.43;;
4555;SDS011;2290;48.674;9.018;2023-06-24T03:31:59;6.87;;;4.70;;
4555;SDS011;2290;48.674;9.018;2023-06-24T03:34:24;5.90;;;4.33;;
4555;SDS011;2290;48.674;9.018;2023-06-24T03:36:52;6.87;;;4.50;;
4555;SDS011;2290;48.674;9.018;2023-06-24T03:39:19;5.73;;;4.10;;
4555;SDS011;2290;48.674;9.018;2023-06-24T03:41:45;6.37;;;4.60;;
4555;SDS011;2290;48.674;9.018;2023-06-24T03:44:11;5.43;;;4.37;;
4555;SDS011;2290;48.674;9.018;2023-06-24T03:46:36;6.70;;;4.93;;
4555;SDS011;2290;48.674;9.018;2023-06-24T03:49:02;9.50;;;4.60;;
4555;SDS011;2290;48.674;9.018;2023-06-24T03:51:28;5.17;;;3.90;;
4555;SDS011;2290;48.674;9.018;2023-06-24T03:53:55;5.40;;;4.20;;
4555;SDS011;2290;48.674;9.018;2023-06-24T03:56:22;5.13;;;4.07;;
4555;SDS011;2290;48.674;9.018;2023-06-24T03:58:49;5.57;;;4.37;;
4555;SDS011;2290;48.674;9.018;2023-06-24T04:01:14;7.37;;;4.43;;
4555;SDS011;2290;48.674;9.018;2023-06-24T04:03:42;5.73;;;4.50;;
4555;SDS011;2290;48.674;9.018;2023-06-24T04:06:09;8.13;;;4.20;;
4555;SDS011;2290;48.674;9.018;2023-06-24T04:08:36;8.50;;;4.67;;
4555;SDS011;2290;48.674;9.018;2023-06-24T04:11:05;6.70;;;4.13;;
4555;SDS011;2290;48.674;9.018;2023-06-24T04:13:33;5.17;;;3.83;;
4555;SDS011;2290;48.674;9.018;2023-06-24T04:15:59;6.43;;;3.93;;
4555;SDS011;2290;48.674;9.018;2023-06-24T04:18:26;6.33;;;4.27;;
4555;SDS011;2290;48.674;9.018;2023-06-24T04:20:54;5.40;;;4.40;;
4555;SDS011;2290;48.674;9.018;2023-06-24T04:23:22;7.80;;;5.07;;
4555;SDS011;2290;48.674;9.018;2023-06-24T04:25:47;5.50;;;3.83;;
4555;SDS011;2290;48.674;9.018;2023-06-24T04:28:15;7.13;;;5.17;;
4555;SDS011;2290;48.674;9.018;2023-06-24T04:30:42;6.23;;;4.30;;
4555;SDS011;2290;48.674;9.018;2023-06-24T04:33:08;5.77;;;4.10;;
4555;SDS011;2290;48.674;9.018;2023-06-24T04:35:34;5.30;;;4.60;;
4555;SDS011;2290;48.674;9.018;2023-06-24T04:38:00;7.10;;;4.80;;
4555;SDS011;2290;48.674;9.018;2023-06-24T04:40:25;9.60;;;4.77;;
4555;SDS011;2290;48.674;9.018;2023-06-24T04:42:51;6.10;;;4.77;;
4555;SDS011;2290;48.674;9.018;2023-06-24T04:45:16;7.67;;;4.60;;
4555;SDS011;2290;48.674;9.018;2023-06-24T04:47:43;6.73;;;4.77;;
4555;SDS011;2290;48.674;9.018;2023-06-24T04:50:10;6.13;;;4.40;;
4555;SDS011;2290;48.674;9.018;2023-06-24T04:52:36;8.03;;;4.67;;
4555;SDS011;2290;48.674;9.018;2023-06-24T04:55:02;6.40;;;4.60;;
4555;SDS011;2290;48.674;9.018;2023-06-24T04:57:30;7.83;;;4.60;;
4555;SDS011;2290;48.674;9.018;2023-06-24T04:59:57;5.53;;;4.53;;
4555;SDS011;2290;48.674;9.018;2023-06-24T05:02:24;7.20;;;5.20;;
4555;SDS011;2290;48.674;9.018;2023-06-24T05:04:51;7.30;;;5.00;;
4555;SDS011;2290;48.674;9.018;2023-06-24T05:07:18;5.43;;;4.40;;
4555;SDS011;2290;48.674;9.018;2023-06-24T05:09:45;5.13;;;4.10;;
4555;SDS011;2290;48.674;9.018;2023-06-24T05:12:12;7.30;;;5.33;;
4555;SDS011;2290;48.674;9.018;2023-06-24T05:14:39;7.07;;;4.87;;
4555;SDS011;2290;48.674;9.018;2023-06-24T05:17:06;8.23;;;4.90;;
4555;SDS011;2290;48.674;9.018;2023-06-24T05:19:31;8.90;;;5.37;;
4555;SDS011;2290;48.674;9.018;2023-06-24T05:21:57;8.13;;;4.70;;
4555;SDS011;2290;48.674;9.018;2023-06-24T05:24:25;7.03;;;4.73;;
4555;SDS011;2290;48.674;9.018;2023-06-24T05:26:51;5.10;;;4.37;;
4555;SDS011;2290;48.674;9.018;2023-06-24T05:29:19;10.47;;;4.70;;
4555;SDS011;2290;48.674;9.018;2023-06-24T05:31:44;8.53;;;5.03;;
4555;SDS011;2290;48.674;9.018;2023-06-24T05:34:12;8.37;;;5.27;;
4555;SDS011;2290;48.674;9.018;2023-06-24T05:36:38;8.00;;;5.00;;
4555;SDS011;2290;48.674;9.018;2023-06-24T05:39:03;8.27;;;4.83;;
4555;SDS011;2290;48.674;9.018;2023-06-24T05:41:34;6.90;;;5.33;;
4555;SDS011;2290;48.674;9.018;2023-06-24T05:44:01;9.43;;;4.80;;
4555;SDS011;2290;48.674;9.018;2023-06-24T05:46:28;6.23;;;5.00;;
4555;SDS011;2290;48.674;9.018;2023-06-24T05:48:53;7.30;;;4.97;;
4555;SDS011;2290;48.674;9.018;2023-06-24T05:51:20;7.17;;;4.40;;
4555;SDS011;2290;48.674;9.018;2023-06-24T05:53:45;7.23;;;4.80;;
4555;SDS011;2290;48.674;9.018;2023-06-24T05:56:13;8.10;;;4.43;;
4555;SDS011;2290;48.674;9.018;2023-06-24T05:58:39;8.57;;;4.93;;
4555;SDS011;2290;48.674;9.018;2023-06-24T06:01:06;6.83;;;4.40;;
4555;SDS011;2290;48.674;9.018;2023-06-24T06:03:33;6.70;;;5.03;;
4555;SDS011;2290;48.674;9.018;2023-06-24T06:05:59;6.30;;;4.47;;
4555;SDS011;2290;48.674;9.018;2023-06-24T06:08:26;5.90;;;4.20;;
4555;SDS011;2290;48.674;9.018;2023-06-24T06:10:51;6.70;;;4.40;;
4555;SDS011;2290;48.674;9.018;2023-06-24T06:13:17;5.70;;;4.50;;
4555;SDS011;2290;48.674;9.018;2023-06-24T06:15:44;6.90;;;5.00;;
4555;SDS011;2290;48.674;9.018;2023-06-24T06:18:12;6.20;;;4.30;;
4555;SDS011;2290;48.674;9.018;2023-06-24T06:20:38;5.60;;;4.10;;
4555;SDS011;2290;48.674;9.018;2023-06-24T06:23:03;5.30;;;3.90;;
4555;SDS011;2290;48.674;9.018;2023-06-24T06:25:29;6.73;;;4.23;;
4555;SDS011;2290;48.674;9.018;2023-06-24T06:27:56;5.87;;;4.10;;
4555;SDS011;2290;48.674;9.018;2023-06-24T06:30:24;5.27;;;4.00;;
4555;SDS011;2290;48.674;9.018;2023-06-24T06:32:51;5.47;;;3.60;;
4555;SDS011;2290;48.674;9.018;2023-06-24T06:35:18;6.10;;;4.10;;
4555;SDS011;2290;48.674;9.018;2023-06-24T06:37:43;5.30;;;4.30;;
4555;SDS011;2290;48.674;9.018;2023-06-24T06:40:19;5.00;;;3.73;;
4555;SDS011;2290;48.674;9.018;2023-06-24T06:42:46;5.93;;;4.07;;
4555;SDS011;2290;48.674;9.018;2023-06-24T06:45:12;6.10;;;4.13;;
4555;SDS011;2290;48.674;9.018;2023-06-24T06:47:37;6.40;;;3.50;;
4555;SDS011;2290;48.674;9.018;2023-06-24T06:50:04;5.07;;;3.80;;
4555;SDS011;2290;48.674;9.018;2023-06-24T06:52:30;5.13;;;3.90;;
4555;SDS011;2290;48.674;9.018;2023-06-24T06:54:56;4.57;;;3.60;;
4555;SDS011;2290;48.674;9.018;2023-06-24T06:57:23;5.00;;;3.03;;
4555;SDS011;2290;48.674;9.018;2023-06-24T06:59:48;5.53;;;4.43;;
4555;SDS011;2290;48.674;9.018;2023-06-24T07:02:17;5.70;;;4.20;;
4555;SDS011;2290;48.674;9.018;2023-06-24T07:04:44;5.17;;;4.03;;
4555;SDS011;2290;48.674;9.018;2023-06-24T07:07:12;5.57;;;4.53;;
4555;SDS011;2290;48.674;9.018;2023-06-24T07:09:38;5.87;;;4.47;;
4555;SDS011;2290;48.674;9.018;2023-06-24T07:12:05;5.57;;;4.20;;
4555;SDS011;2290;48.674;9.018;2023-06-24T07:14:31;5.60;;;4.17;;
4555;SDS011;2290;48.674;9.018;2023-06-24T07:16:58;3.90;;;3.43;;
4555;SDS011;2290;48.674;9.018;2023-06-24T07:19:24;4.47;;;3.40;;
4555;SDS011;2290;48.674;9.018;2023-06-24T07:21:51;5.57;;;4.13;;
4555;SDS011;2290;48.674;9.018;2023-06-24T07:24:17;4.47;;;3.40;;
4555;SDS011;2290;48.674;9.018;2023-06-24T07:26:43;4.87;;;3.40;;
4555;SDS011;2290;48.674;9.018;2023-06-24T07:29:10;4.00;;;3.20;;
4555;SDS011;2290;48.674;9.018;2023-06-24T07:31:39;4.30;;;3.50;;
4555;SDS011;2290;48.674;9.018;2023-06-24T07:34:05;6.13;;;3.40;;
4555;SDS011;2290;48.674;9.018;2023-06-24T07:36:30;5.73;;;3.60;;
4555;SDS011;2290;48.674;9.018;2023-06-24T07:38:56;3.87;;;3.13;;
4555;SDS011;2290;48.674;9.018;2023-06-24T07:41:22;4.60;;;3.83;;
4555;SDS011;2290;48.674;9.018;2023-06-24T07:43:48;5.27;;;3.83;;
4555;SDS011;2290;48.674;9.018;2023-06-24T07:46:14;4.60;;;3.30;;
4555;SDS011;2290;48.674;9.018;2023-06-24T07:48:42;5.37;;;3.73;;
4555;SDS011;2290;48.674;9.018;2023-06-24T07:51:08;5.67;;;3.80;;
4555;SDS011;2290;48.674;9.018;2023-06-24T07:53:36;4.47;;;3.50;;
4555;SDS011;2290;48.674;9.018;2023-06-24T07:56:02;4.90;;;3.97;;
4555;SDS011;2290;48.674;9.018;2023-06-24T07:58:28;4.87;;;3.60;;
4555;SDS011;2290;48.674;9.018;2023-06-24T08:00:54;4.70;;;3.63;;
4555;SDS011;2290;48.674;9.018;2023-06-24T08:03:20;4.67;;;3.43;;
4555;SDS011;2290;48.674;9.018;2023-06-24T08:05:46;4.80;;;3.83;;
4555;SDS011;2290;48.674;9.018;2023-06-24T08:08:13;5.50;;;4.20;;
4555;SDS011;2290;48.674;9.018;2023-06-24T08:10:39;5.30;;;3.87;;
4555;SDS011;2290;48.674;9.018;2023-06-24T08:13:05;4.30;;;3.57;;
4555;SDS011;2290;48.674;9.018;2023-06-24T08:15:31;5.47;;;3.70;;
4555;SDS011;2290;48.674;9.018;2023-06-24T08:17:57;5.30;;;3.77;;
4555;SDS011;2290;48.674;9.018;2023-06-24T08:20:23;7.20;;;3.70;;
4555;SDS011;2290;48.674;9.018;2023-06-24T08:22:49;6.17;;;4.43;;
4555;SDS011;2290;48.674;9.018;2023-06-24T08:25:15;5.10;;;4.03;;
4555;SDS011;2290;48.674;9.018;2023-06-24T08:27:40;4.03;;;3.63;;
4555;SDS011;2290;48.674;9.018;2023-06-24T08:30:08;6.03;;;4.10;;
4555;SDS011;2290;48.674;9.018;2023-06-24T08:32:37;4.83;;;3.90;;
4555;SDS011;2290;48.674;9.018;2023-06-24T08:35:03;4.97;;;3.33;;
4555;SDS011;2290;48.674;9.018;2023-06-24T08:37:29;4.80;;;3.60;;
4555;SDS011;2290;48.674;9.018;2023-06-24T08:39:54;7.90;;;3.93;;
4555;SDS011;2290;48.674;9.018;2023-06-24T08:42:20;4.13;;;3.40;;
4555;SDS011;2290;48.674;9.018;2023-06-24T08:44:45;4.27;;;3.43;;
4555;SDS011;2290;48.674;9.018;2023-06-24T08:47:11;5.17;;;3.23;;
4555;SDS011;2290;48.674;9.018;2023-06-24T08:49:42;4.63;;;3.90;;
4555;SDS011;2290;48.674;9.018;2023-06-24T08:52:14;4.07;;;3.30;;
4555;SDS011;2290;48.674;9.018;2023-06-24T08:54:46;4.30;;;3.63;;
4555;SDS011;2290;48.674;9.018;2023-06-24T08:57:16;4.03;;;3.13;;
4555;SDS011;2290;48.674;9.018;2023-06-24T08:59:43;4.57;;;3.30;;
4555;SDS011;2290;48.674;9.018;2023-06-24T09:02:09;4.90;;;3.67;;
4555;SDS011;2290;48.674;9.018;2023-06-24T09:04:36;5.27;;;3.63;;
4555;SDS011;2290;48.674;9.018;2023-06-24T09:07:03;4.40;;;3.50;;
4555;SDS011;2290;48.674;9.018;2023-06-24T09:09:30;4.77;;;3.90;;
4555;SDS011;2290;48.674;9.018;2023-06-24T09:14:25;4.20;;;3.50;;
4555;SDS011;2290;48.674;9.018;2023-06-24T09:16:57;6.10;;;3.50;;
4555;SDS011;2290;48.674;9.018;2023-06-24T09:19:26;4.67;;;3.37;;
4555;SDS011;2290;48.674;9.018;2023-06-24T09:21:55;4.67;;;3.63;;
4555;SDS011;2290;48.674;9.018;2023-06-24T09:24:27;5.27;;;3.20;;
4555;SDS011;2290;48.674;9.018;2023-06-24T09:26:55;3.27;;;2.97;;
4555;SDS011;2290;48.674;9.018;2023-06-24T09:29:25;3.87;;;3.10;;
4555;SDS011;2290;48.674;9.018;2023-06-24T09:31:57;4.20;;;3.27;;
4555;SDS011;2290;48.674;9.018;2023-06-24T09:34:25;4.70;;;3.40;;
4555;SDS011;2290;48.674;9.018;2023-06-24T09:36:54;4.90;;;3.97;;
4555;SDS011;2290;48.674;9.018;2023-06-24T09:39:21;6.20;;;3.33;;
4555;SDS011;2290;48.674;9.018;2023-06-24T09:42:10;4.63;;;3.20;;
4555;SDS011;2290;48.674;9.018;2023-06-24T09:44:38;4.67;;;3.10;;
4555;SDS011;2290;48.674;9.018;2023-06-24T09:47:04;4.10;;;3.57;;
4555;SDS011;2290;48.674;9.018;2023-06-24T09:49:31;5.07;;;3.50;;
4555;SDS011;2290;48.674;9.018;2023-06-24T09:51:59;4.30;;;3.20;;
4555;SDS011;2290;48.674;9.018;2023-06-24T09:54:30;3.63;;;2.90;;
4555;SDS011;2290;48.674;9.018;2023-06-24T09:56:58;4.00;;;3.37;;
4555;SDS011;2290;48.674;9.018;2023-06-24T09:59:26;5.00;;;3.57;;
4555;SDS011;2290;48.674;9.018;2023-06-24T10:01:53;4.27;;;3.67;;
4555;SDS011;2290;48.674;9.018;2023-06-24T10:04:19;3.57;;;3.27;;
4555;SDS011;2290;48.674;9.018;2023-06-24T10:06:47;3.73;;;3.33;;
4555;SDS011;2290;48.674;9.018;2023-06-24T10:09:15;5.13;;;3.70;;
4555;SDS011;2290;48.674;9.018;2023-06-24T10:11:46;3.97;;;3.23;;
4555;SDS011;2290;48.674;9.018;2023-06-24T10:14:15;5.53;;;3.30;;
4555;SDS011;2290;48.674;9.018;2023-06-24T10:16:41;3.73;;;3.33;;
4555;SDS011;2290;48.674;9.018;2023-06-24T10:19:08;4.47;;;3.50;;
4555;SDS011;2290;48.674;9.018;2023-06-24T10:24:40;4.80;;;3.10;;
4555;SDS011;2290;48.674;9.018;2023-06-24T10:27:14;4.57;;;3.53;;
4555;SDS011;2290;48.674;9.018;2023-06-24T10:29:46;6.47;;;3.60;;
4555;SDS011;2290;48.674;9.018;2023-06-24T10:32:18;4.20;;;3.20;;
4555;SDS011;2290;48.674;9.018;2023-06-24T10:34:45;4.30;;;3.00;;
4555;SDS011;2290;48.674;9.018;2023-06-24T10:37:12;4.70;;;3.20;;
4555;SDS011;2290;48.674;9.018;2023-06-24T10:39:58;3.63;;;3.17;;
4555;SDS011;2290;48.674;9.018;2023-06-24T10:42:44;4.00;;;3.40;;
4555;SDS011;2290;48.674;9.018;2023-06-24T10:45:15;3.67;;;2.87;;
4555;SDS011;2290;48.674;9.018;2023-06-24T10:47:58;4.33;;;3.30;;
4555;SDS011;2290;48.674;9.018;2023-06-24T10:50:25;4.63;;;3.50;;
4555;SDS011;2290;48.674;9.018;2023-06-24T10:52:53;3.70;;;3.00;;
4555;SDS011;2290;48.674;9.018;2023-06-24T10:55:21;3.60;;;3.13;;
4555;SDS011;2290;48.674;9.018;2023-06-24T10:57:51;4.17;;;3.40;;
4555;SDS011;2290;48.674;9.018;2023-06-24T11:00:19;3.43;;;2.90;;
4555;SDS011;2290;48.674;9.018;2023-06-24T11:02:45;4.77;;;3.17;;
4555;SDS011;2290;48.674;9.018;2023-06-24T11:05:13;4.40;;;3.13;;
4555;SDS011;2290;48.674;9.018;2023-06-24T11:07:39;4.07;;;3.10;;
4555;SDS011;2290;48.674;9.018;2023-06-24T11:10:06;5.03;;;4.00;;
4555;SDS011;2290;48.674;9.018;2023-06-24T11:12:33;3.93;;;3.40;;
4555;SDS011;2290;48.674;9.018;2023-06-24T11:15:11;3.70;;;3.10;;
4555;SDS011;2290;48.674;9.018;2023-06-24T11:17:39;5.10;;;3.73;;
4555;SDS011;2290;48.674;9.018;2023-06-24T11:20:12;5.07;;;3.77;;
4555;SDS011;2290;48.674;9.018;2023-06-24T11:22:44;3.83;;;3.40;;
4555;SDS011;2290;48.674;9.018;2023-06-24T11:25:17;4.43;;;3.67;;
4555;SDS011;2290;48.674;9.018;2023-06-24T11:27:45;5.43;;;3.10;;
4555;SDS011;2290;48.674;9.018;2023-06-24T11:30:11;3.83;;;2.83;;
4555;SDS011;2290;48.674;9.018;2023-06-24T11:32:39;4.57;;;3.20;;
4555;SDS011;2290;48.674;9.018;2023-06-24T11:35:08;4.30;;;3.43;;
4555;SDS011;2290;48.674;9.018;2023-06-24T11:37:34;4.00;;;3.60;;
4555;SDS011;2290;48.674;9.018;2023-06-24T11:40:01;4.50;;;3.50;;
4555;SDS011;2290;48.674;9.018;2023-06-24T11:42:29;3.70;;;3.03;;
4555;SDS011;2290;48.674;9.018;2023-06-24T11:45:02;3.77;;;3.07;;
4555;SDS011;2290;48.674;9.018;2023-06-24T11:47:32;4.30;;;3.40;;
4555;SDS011;2290;48.674;9.018;2023-06-24T11:49:59;4.07;;;3.20;;
4555;SDS011;2290;48.674;9.018;2023-06-24T11:55:19;4.20;;;3.20;;
4555;SDS011;2290;48.674;9.018;2023-06-24T11:58:05;4.50;;;3.53;;
4555;SDS011;2290;48.674;9.018;2023-06-24T12:00:38;4.23;;;3.43;;
4555;SDS011;2290;48.674;9.018;2023-06-24T12:03:08;3.53;;;2.90;;
4555;SDS011;2290;48.674;9.018;2023-06-24T12:05:35;4.20;;;3.20;;
4555;SDS011;2290;48.674;9.018;2023-06-24T12:08:02;3.73;;;3.00;;
4555;SDS011;2290;48.674;9.018;2023-06-24T12:10:32;3.83;;;3.27;;
4555;SDS011;2290;48.674;9.018;2023-06-24T12:13:03;4.20;;;3.30;;
4555;SDS011;2290;48.674;9.018;2023-06-24T12:15:30;7.93;;;3.23;;
4555;SDS011;2290;48.674;9.018;2023-06-24T12:17:58;3.90;;;3.10;;
4555;SDS011;2290;48.674;9.018;2023-06-24T12:20:26;3.63;;;3.10;;
4555;SDS011;2290;48.674;9.018;2023-06-24T12:22:53;4.07;;;3.00;;
4555;SDS011;2290;48.674;9.018;2023-06-24T12:25:18;4.17;;;2.87;;
4555;SDS011;2290;48.674;9.018;2023-06-24T12:27:46;4.00;;;3.57;;
4555;SDS011;2290;48.674;9.018;2023-06-24T12:30:12;4.13;;;3.33;;
4555;SDS011;2290;48.674;9.018;2023-06-24T12:32:39;3.67;;;3.13;;
4555;SDS011;2290;48.674;9.018;2023-06-24T12:35:07;4.13;;;3.20;;
4555;SDS011;2290;48.674;9.018;2023-06-24T12:37:36;4.03;;;3.33;;
4555;SDS011;2290;48.674;9.018;2023-06-24T12:40:03;5.00;;;3.33;;
4555;SDS011;2290;48.674;9.018;2023-06-24T12:42:29;3.97;;;3.20;;
4555;SDS011;2290;48.674;9.018;2023-06-24T12:44:55;5.03;;;3.20;;
4555;SDS011;2290;48.674;9.018;2023-06-24T12:47:21;3.83;;;3.30;;
4555;SDS011;2290;48.674;9.018;2023-06-24T12:49:47;3.90;;;3.40;;
4555;SDS011;2290;48.674;9.018;2023-06-24T12:52:14;4.80;;;3.27;;
4555;SDS011;2290;48.674;9.018;2023-06-24T12:54:41;3.80;;;3.40;;
4555;SDS011;2290;48.674;9.018;2023-06-24T12:57:07;4.40;;;3.10;;
4555;SDS011;2290;48.674;9.018;2023-06-24T12:59:34;7.10;;;3.47;;
4555;SDS011;2290;48.674;9.018;2023-06-24T13:02:00;4.20;;;3.13;;
4555;SDS011;2290;48.674;9.018;2023-06-24T13:04:26;4.10;;;3.53;;
4555;SDS011;2290;48.674;9.018;2023-06-24T13:06:55;3.40;;;3.10;;
4555;SDS011;2290;48.674;9.018;2023-06-24T13:09:21;3.67;;;3.30;;
4555;SDS011;2290;48.674;9.018;2023-06-24T13:11:47;3.73;;;3.33;;
4555;SDS011;2290;48.674;9.018;2023-06-24T13:14:14;4.57;;;3.20;;
4555;SDS011;2290;48.674;9.018;2023-06-24T13:16:44;6.07;;;3.27;;
4555;SDS011;2290;48.674;9.018;2023-06-24T13:19:11;3.70;;;3.17;;
4555;SDS011;2290;48.674;9.018;2023-06-24T13:21:37;3.97;;;3.33;;
4555;SDS011;2290;48.674;9.018;2023-06-24T13:24:07;3.87;;;3.33;;
4555;SDS011;2290;48.674;9.018;2023-06-24T13:26:34;4.27;;;3.50;;
4555;SDS011;2290;48.674;9.018;2023-06-24T13:28:59;3.53;;;3.03;;
4555;SDS011;2290;48.674;9.018;2023-06-24T13:31:25;3.63;;;3.33;;
4555;SDS011;2290;48.674;9.018;2023-06-24T13:33:50;4.37;;;3.53;;
4555;SDS011;2290;48.674;9.018;2023-06-24T13:36:30;3.77;;;3.23;;
4555;SDS011;2290;48.674;9.018;2023-06-24T13:39:05;3.73;;;3.33;;
4555;SDS011;2290;48.674;9.018;2023-06-24T13:41:32;3.70;;;3.10;;
4555;SDS011;2290;48.674;9.018;2023-06-24T13:44:00;4.70;;;3.60;;
4555;SDS011;2290;48.674;9.018;2023-06-24T13:46:27;5.07;;;3.40;;
4555;SDS011;2290;48.674;9.018;2023-06-24T13:48:57;4.50;;;3.60;;
4555;SDS011;2290;48.674;9.018;2023-06-24T13:51:23;8.30;;;3.43;;
4555;SDS011;2290;48.674;9.018;2023-06-24T13:53:50;5.10;;;3.50;;
4555;SDS011;2290;48.674;9.018;2023-06-24T13:56:18;4.37;;;3.40;;
4555;SDS011;2290;48.674;9.018;2023-06-24T13:58:45;4.30;;;3.83;;
4555;SDS011;2290;48.674;9.018;2023-06-24T14:01:11;4.67;;;3.40;;
4555;SDS011;2290;48.674;9.018;2023-06-24T14:03:37;3.90;;;3.37;;
4555;SDS011;2290;48.674;9.018;2023-06-24T14:06:03;3.63;;;3.30;;
4555;SDS011;2290;48.674;9.018;2023-06-24T14:08:30;3.27;;;2.97;;
4555;SDS011;2290;48.674;9.018;2023-06-24T14:10:58;4.00;;;3.30;;
4555;SDS011;2290;48.674;9.018;2023-06-24T14:13:26;4.63;;;3.63;;
4555;SDS011;2290;48.674;9.018;2023-06-24T14:15:53;3.70;;;3.20;;
4555;SDS011;2290;48.674;9.018;2023-06-24T14:18:19;4.67;;;3.80;;
4555;SDS011;2290;48.674;9.018;2023-06-24T14:20:46;4.57;;;3.43;;
4555;SDS011;2290;48.674;9.018;2023-06-24T14:23:14;5.43;;;3.60;;
4555;SDS011;2290;48.674;9.018;2023-06-24T14:25:40;6.27;;;3.33;;
4555;SDS011;2290;48.674;9.018;2023-06-24T14:28:05;5.20;;;4.07;;
4555;SDS011;2290;48.674;9.018;2023-06-24T14:30:32;3.77;;;3.20;;
4555;SDS011;2290;48.674;9.018;2023-06-24T14:33:01;3.97;;;3.50;;
4555;SDS011;2290;48.674;9.018;2023-06-24T14:35:28;4.03;;;3.63;;
4555;SDS011;2290;48.674;9.018;2023-06-24T14:37:53;3.30;;;3.00;;
4555;SDS011;2290;48.674;9.018;2023-06-24T14:40:22;3.47;;;3.07;;
4555;SDS011;2290;48.674;9.018;2023-06-24T14:42:47;4.30;;;3.63;;
4555;SDS011;2290;48.674;9.018;2023-06-24T14:45:13;4.83;;;3.47;;
4555;SDS011;2290;48.674;9.018;2023-06-24T14:47:40;3.77;;;3.03;;
4555;SDS011;2290;48.674;9.018;2023-06-24T14:50:06;4.20;;;3.17;;
4555;SDS011;2290;48.674;9.018;2023-06-24T14:52:33;4.17;;;3.33;;
4555;SDS011;2290;48.674;9.018;2023-06-24T14:54:58;3.87;;;3.50;;
4555;SDS011;2290;48.674;9.018;2023-06-24T14:57:24;3.50;;;2.87;;
4555;SDS011;2290;48.674;9.018;2023-06-24T14:59:51;3.50;;;3.20;;
4555;SDS011;2290;48.674;9.018;2023-06-24T15:02:18;4.07;;;3.33;;
4555;SDS011;2290;48.674;9.018;2023-06-24T15:04:44;4.30;;;3.90;;
4555;SDS011;2290;48.674;9.018;2023-06-24T15:07:11;3.90;;;3.17;;
4555;SDS011;2290;48.674;9.018;2023-06-24T15:09:36;4.53;;;3.70;;
4555;SDS011;2290;48.674;9.018;2023-06-24T15:12:02;5.93;;;3.47;;
4555;SDS011;2290;48.674;9.018;2023-06-24T15:14:28;4.20;;;3.60;;
4555;SDS011;2290;48.674;9.018;2023-06-24T15:16:55;8.00;;;3.80;;
4555;SDS011;2290;48.674;9.018;2023-06-24T15:19:23;4.47;;;3.60;;
4555;SDS011;2290;48.674;9.018;2023-06-24T15:21:50;4.67;;;3.80;;
4555;SDS011;2290;48.674;9.018;2023-06-24T15:24:16;4.23;;;3.63;;
4555;SDS011;2290;48.674;9.018;2023-06-24T15:26:43;3.63;;;3.30;;
4555;SDS011;2290;48.674;9.018;2023-06-24T15:29:08;4.00;;;3.60;;
4555;SDS011;2290;48.674;9.018;2023-06-24T15:31:35;4.00;;;3.57;;
4555;SDS011;2290;48.674;9.018;2023-06-24T15:34:00;4.07;;;3.57;;
4555;SDS011;2290;48.674;9.018;2023-06-24T15:36:26;4.60;;;3.53;;